Time;durP1;ratioP1;P1;durP2;ratioP2;P2;SDS_P1;SDS_P2;PMS_P1;PMS_P2;Temp;Humidity;BMP_temperature;BMP_pressure;BME280_temperature;BME280_humidity;BME280_pressure;Samples;Min_cycle;Max_cycle;Signal;HPM_P1;HPM_P2
2022/04/19 00:01:32;;;;;;;11.52;5.70;;;7.40;99.90;;;;;;4957036;28;20043;-73
2022/04/19 00:03:58;;;;;;;10.70;6.10;;;7.40;99.90;;;;;;4957475;28;20047;-74
2022/04/19 00:06:23;;;;;;;10.30;6.28;;;7.40;99.90;;;;;;4957345;28;20047;-74
2022/04/19 00:08:51;;;;;;;12.25;5.65;;;7.30;99.90;;;;;;4957280;28;20046;-74
2022/04/19 00:11:17;;;;;;;25.85;6.25;;;7.20;99.90;;;;;;4973039;28;20094;-74
2022/04/19 00:13:43;;;;;;;10.60;6.38;;;7.20;99.90;;;;;;4957183;28;20054;-73
2022/04/19 00:16:08;;;;;;;10.93;6.03;;;7.20;99.90;;;;;;4974544;28;20125;-73
2022/04/19 00:18:34;;;;;;;10.18;6.13;;;7.10;99.90;;;;;;4957193;28;20187;-73
2022/04/19 00:21:00;;;;;;;11.75;5.90;;;7.00;99.90;;;;;;4957019;28;20452;-74
2022/04/19 00:23:25;;;;;;;11.25;6.22;;;7.00;99.90;;;;;;4957160;28;20038;-73
2022/04/19 00:25:52;;;;;;;9.50;5.47;;;7.00;99.90;;;;;;4974218;28;20046;-73
2022/04/19 00:28:18;;;;;;;9.95;6.07;;;6.90;99.90;;;;;;4974355;28;20046;-73
2022/04/19 00:30:46;;;;;;;10.15;5.65;;;6.90;99.90;;;;;;4956718;28;20043;-74
2022/04/19 00:33:11;;;;;;;11.48;6.45;;;6.80;99.90;;;;;;4974356;28;20046;-73
2022/04/19 00:35:38;;;;;;;11.65;5.57;;;6.80;99.90;;;;;;4956749;28;20043;-74
2022/04/19 00:38:04;;;;;;;9.52;5.80;;;6.80;99.90;;;;;;4956802;28;20049;-73
2022/04/19 00:40:29;;;;;;;9.73;6.13;;;6.90;99.90;;;;;;4972598;28;20042;-73
2022/04/19 00:42:55;;;;;;;10.95;6.43;;;6.90;99.90;;;;;;4956695;28;20097;-73
2022/04/19 00:45:24;;;;;;;14.70;6.32;;;6.80;99.90;;;;;;4956869;28;20051;-73
2022/04/19 00:47:54;;;;;;;13.52;6.65;;;6.80;99.90;;;;;;4973857;28;20043;-73
2022/04/19 00:50:20;;;;;;;11.10;5.75;;;6.80;99.90;;;;;;4956172;28;20406;-73
2022/04/19 00:52:46;;;;;;;8.15;5.57;;;6.80;99.90;;;;;;4973941;28;20051;-73
2022/04/19 00:55:12;;;;;;;9.75;6.20;;;6.60;99.90;;;;;;4956521;28;20046;-73
2022/04/19 00:57:39;;;;;;;15.10;6.22;;;6.60;99.90;;;;;;4956366;28;20065;-73
2022/04/19 01:00:08;;;;;;;10.80;6.18;;;6.60;99.90;;;;;;4956029;28;20462;-73
2022/04/19 01:02:35;;;;;;;12.77;6.25;;;6.50;99.90;;;;;;4956423;28;20526;-75
2022/04/19 01:05:01;;;;;;;9.32;6.47;;;6.50;99.90;;;;;;4973682;28;20043;-73
2022/04/19 01:07:27;;;;;;;11.63;5.97;;;6.50;99.90;;;;;;4956321;28;20525;-73
2022/04/19 01:09:53;;;;;;;12.73;7.22;;;6.40;99.90;;;;;;4956204;28;20034;-73
2022/04/19 01:15:08;;;;;;;11.38;6.22;;;6.40;99.90;;;;;;4973639;28;20053;-73
2022/04/19 01:17:39;;;;;;;8.82;5.80;;;6.40;99.90;;;;;;4956003;28;20099;-73
2022/04/19 01:20:10;;;;;;;12.53;7.10;;;6.30;99.90;;;;;;4955757;28;20050;-73
2022/04/19 01:22:40;;;;;;;12.60;6.78;;;6.40;99.90;;;;;;4956645;28;20119;-73
2022/04/19 01:25:08;;;;;;;10.13;5.90;;;6.30;99.90;;;;;;4960717;28;20046;-73
2022/04/19 01:27:34;;;;;;;12.50;6.72;;;6.30;99.90;;;;;;4955727;28;20043;-73
2022/04/19 01:30:04;;;;;;;10.75;5.88;;;6.30;99.90;;;;;;4972836;28;20082;-73
2022/04/19 01:32:31;;;;;;;9.85;6.75;;;6.20;99.90;;;;;;4956077;28;20058;-73
2022/04/19 01:35:10;;;;;;;12.82;6.00;;;6.20;99.90;;;;;;4973185;28;20043;-73
2022/04/19 01:37:38;;;;;;;9.65;6.05;;;6.10;99.90;;;;;;4955610;28;20055;-73
2022/04/19 01:40:16;;;;;;;13.52;7.35;;;6.10;99.90;;;;;;4971362;28;20082;-73
2022/04/19 01:42:50;;;;;;;11.80;7.30;;;6.10;99.90;;;;;;4955670;28;20053;-73
2022/04/19 01:45:18;;;;;;;12.05;6.45;;;6.00;99.90;;;;;;4955567;28;20241;-73
2022/04/19 01:47:44;;;;;;;13.90;7.18;;;5.90;99.90;;;;;;4971756;28;20065;-73
2022/04/19 01:50:12;;;;;;;12.88;6.47;;;5.80;99.90;;;;;;4955332;28;20094;-73
2022/04/19 01:52:38;;;;;;;14.65;6.32;;;5.80;99.90;;;;;;4972674;28;20470;-73
2022/04/19 01:55:09;;;;;;;11.73;6.70;;;5.80;99.90;;;;;;4955463;28;20078;-73
2022/04/19 01:57:36;;;;;;;12.48;6.70;;;5.80;99.90;;;;;;4954951;28;20042;-73
2022/04/19 02:00:04;;;;;;;12.50;6.38;;;5.80;99.90;;;;;;4954560;28;20081;-73
2022/04/19 02:02:30;;;;;;;17.83;7.68;;;5.90;99.90;;;;;;4955309;28;20402;-73
2022/04/19 02:04:55;;;;;;;11.73;7.82;;;5.90;99.90;;;;;;4955604;28;20047;-73
2022/04/19 02:07:21;;;;;;;12.55;7.03;;;5.80;99.90;;;;;;4955115;28;20039;-73
2022/04/19 02:09:47;;;;;;;14.38;6.95;;;5.90;99.90;;;;;;4955213;28;20108;-74
2022/04/19 02:12:13;;;;;;;14.13;7.28;;;5.80;99.90;;;;;;4972601;28;20043;-74
2022/04/19 02:14:41;;;;;;;18.67;7.00;;;5.80;99.90;;;;;;4955242;28;20046;-73
2022/04/19 02:17:09;;;;;;;15.02;6.63;;;5.80;99.90;;;;;;4972477;28;20089;-73
2022/04/19 02:19:35;;;;;;;13.00;6.90;;;5.80;99.90;;;;;;4972213;28;20046;-73
2022/04/19 02:22:03;;;;;;;13.27;7.18;;;5.70;99.90;;;;;;4954616;28;20053;-73
2022/04/19 02:24:29;;;;;;;12.88;7.38;;;5.70;99.90;;;;;;4954597;28;20126;-74
2022/04/19 02:26:54;;;;;;;16.50;8.25;;;5.60;99.90;;;;;;4955180;28;20175;-74
2022/04/19 02:29:20;;;;;;;13.65;7.38;;;5.60;99.90;;;;;;4954808;28;20061;-73
2022/04/19 02:31:46;;;;;;;13.30;7.43;;;5.50;99.90;;;;;;4954594;28;20047;-74
2022/04/19 02:34:11;;;;;;;15.52;8.18;;;5.60;99.90;;;;;;4955190;28;20038;-73
2022/04/19 02:36:39;;;;;;;12.73;7.90;;;5.50;99.90;;;;;;4955007;28;20580;-73
2022/04/19 02:39:04;;;;;;;17.08;8.57;;;5.50;99.90;;;;;;4954844;28;20047;-74
2022/04/19 02:41:30;;;;;;;14.15;7.18;;;5.50;99.90;;;;;;4954780;28;20065;-73
2022/04/19 02:43:59;;;;;;;16.85;9.25;;;5.50;99.90;;;;;;4972424;28;20228;-73
2022/04/19 02:46:24;;;;;;;12.70;7.07;;;5.50;99.90;;;;;;4994449;28;20082;-73
2022/04/19 02:48:50;;;;;;;17.50;8.93;;;5.60;99.90;;;;;;4954804;28;20062;-74
2022/04/19 02:51:15;;;;;;;16.73;8.95;;;5.40;99.90;;;;;;4954477;28;20406;-74
2022/04/19 02:53:43;;;;;;;15.80;8.57;;;5.40;99.90;;;;;;4954818;28;20051;-74
2022/04/19 02:56:08;;;;;;;15.68;7.20;;;5.30;99.90;;;;;;4954823;28;20083;-73
2022/04/19 02:58:34;;;;;;;15.07;8.55;;;5.30;99.90;;;;;;4954747;28;20074;-73
2022/04/19 03:00:59;;;;;;;15.18;8.35;;;5.30;99.90;;;;;;4954556;28;20050;-73
2022/04/19 03:03:25;;;;;;;20.27;9.27;;;5.20;99.90;;;;;;4954706;28;20074;-74
2022/04/19 03:05:52;;;;;;;14.88;8.00;;;5.20;99.90;;;;;;4954876;28;20470;-73
2022/04/19 03:08:19;;;;;;;16.50;9.45;;;5.20;99.90;;;;;;4954621;28;20075;-74
2022/04/19 03:10:44;;;;;;;13.65;7.97;;;5.20;99.90;;;;;;4954409;28;20067;-74
2022/04/19 03:13:10;;;;;;;17.80;9.15;;;5.10;99.90;;;;;;4954669;28;20721;-73
2022/04/19 03:15:37;;;;;;;14.73;8.25;;;5.10;99.90;;;;;;4954855;28;20086;-73
2022/04/19 03:18:03;;;;;;;14.25;7.93;;;5.10;99.90;;;;;;4971916;28;20047;-73
2022/04/19 03:20:29;;;;;;;15.30;9.05;;;5.00;99.90;;;;;;4971750;28;20043;-74
2022/04/19 03:28:22;;;;;;;12.15;8.15;;;4.90;99.90;;;;;;4954551;28;20119;-73
2022/04/19 03:30:48;;;;;;;14.68;7.70;;;4.90;99.90;;;;;;4954295;28;20050;-73
2022/04/19 03:33:16;;;;;;;16.55;8.02;;;4.80;99.90;;;;;;4954578;28;20046;-73
2022/04/19 03:35:41;;;;;;;15.27;8.80;;;4.80;99.90;;;;;;4974637;28;20098;-73
2022/04/19 03:38:08;;;;;;;18.88;8.40;;;4.70;99.90;;;;;;4957779;28;20050;-74
2022/04/19 03:40:34;;;;;;;16.45;8.65;;;4.70;99.90;;;;;;4957871;28;20110;-73
2022/04/19 03:43:00;;;;;;;14.45;8.63;;;4.70;99.90;;;;;;4957694;28;20046;-73
2022/04/19 03:45:25;;;;;;;14.95;8.77;;;4.70;99.90;;;;;;4958149;28;20094;-74
2022/04/19 03:47:52;;;;;;;17.35;8.35;;;4.60;99.90;;;;;;4957691;28;20098;-74
2022/04/19 03:50:17;;;;;;;15.48;8.52;;;4.70;99.90;;;;;;4974791;28;20038;-74
2022/04/19 03:52:44;;;;;;;14.07;7.70;;;4.60;99.90;;;;;;4975062;28;20065;-74
2022/04/19 03:55:10;;;;;;;16.75;8.00;;;4.60;99.90;;;;;;4957723;28;20053;-74
2022/04/19 03:57:35;;;;;;;15.77;8.35;;;4.60;99.90;;;;;;4957860;28;20047;-73
2022/04/19 04:00:01;;;;;;;17.25;8.50;;;4.50;99.90;;;;;;4974599;28;20047;-73
2022/04/19 04:02:27;;;;;;;19.17;8.88;;;4.50;99.90;;;;;;4957754;28;20057;-74
2022/04/19 04:04:53;;;;;;;17.95;9.32;;;4.50;99.90;;;;;;4957722;28;20051;-74
2022/04/19 04:07:18;;;;;;;15.05;8.48;;;4.50;99.90;;;;;;4957518;28;20035;-74
2022/04/19 04:09:44;;;;;;;18.85;8.98;;;4.50;99.90;;;;;;4957207;28;20039;-73
2022/04/19 04:12:13;;;;;;;16.67;8.80;;;4.50;99.90;;;;;;4957422;28;20666;-74
2022/04/19 04:14:40;;;;;;;16.40;8.98;;;4.50;99.90;;;;;;4957322;28;20509;-73
2022/04/19 04:17:06;;;;;;;16.15;8.32;;;4.50;99.90;;;;;;4957108;28;20066;-73
2022/04/19 04:19:32;;;;;;;17.83;9.32;;;4.60;99.90;;;;;;4956883;28;20046;-73
2022/04/19 04:21:58;;;;;;;17.73;9.73;;;4.60;99.90;;;;;;4957330;28;20046;-73
2022/04/19 04:24:23;;;;;;;19.77;11.18;;;4.70;99.90;;;;;;4957300;28;20055;-73
2022/04/19 04:26:49;;;;;;;18.52;9.60;;;4.80;99.90;;;;;;4957111;28;20047;-75
2022/04/19 04:29:14;;;;;;;19.25;9.88;;;4.80;99.90;;;;;;4957057;28;20043;-75
2022/04/19 04:31:40;;;;;;;19.83;9.15;;;4.90;99.90;;;;;;4957006;28;20043;-74
2022/04/19 04:34:06;;;;;;;22.35;10.25;;;5.10;99.90;;;;;;4974204;28;20066;-75
2022/04/19 04:36:32;;;;;;;20.83;9.10;;;5.20;99.90;;;;;;4957085;28;20047;-74
2022/04/19 04:38:58;;;;;;;17.33;9.02;;;5.40;99.90;;;;;;4940851;28;20094;-74
2022/04/19 04:41:24;;;;;;;21.38;10.18;;;5.40;99.90;;;;;;4973752;28;20042;-75
2022/04/19 04:43:49;;;;;;;34.63;18.35;;;5.50;99.90;;;;;;4972770;28;20051;-75
2022/04/19 04:51:43;;;;;;;19.92;8.57;;;5.60;99.90;;;;;;4956768;28;20059;-74
2022/04/19 04:54:09;;;;;;;14.25;7.65;;;5.60;99.90;;;;;;4973852;28;20498;-75
2022/04/19 04:56:34;;;;;;;18.80;8.68;;;5.70;99.90;;;;;;4972627;28;20046;-75
2022/04/19 04:59:00;;;;;;;14.60;8.27;;;5.70;99.90;;;;;;4956407;28;20054;-75
2022/04/19 05:01:25;;;;;;;17.58;9.00;;;5.90;99.90;;;;;;4956051;28;20482;-75
2022/04/19 05:03:51;;;;;;;61.85;32.10;;;6.30;99.90;;;;;;4956251;28;20065;-75
2022/04/19 05:06:17;;;;;;;77.05;39.22;;;6.70;99.90;;;;;;4956344;28;20839;-75
2022/04/19 05:08:42;;;;;;;28.65;15.88;;;7.00;99.90;;;;;;4956490;28;20161;-76
2022/04/19 05:11:08;;;;;;;20.25;10.07;;;7.20;99.90;;;;;;4971972;28;20039;-75
2022/04/19 05:13:34;;;;;;;21.75;9.98;;;7.40;99.90;;;;;;4956375;28;20106;-75
2022/04/19 05:16:01;;;;;;;21.73;11.52;;;7.30;99.90;;;;;;4955862;28;20055;-75
2022/04/19 05:18:26;;;;;;;20.73;12.40;;;7.20;99.90;;;;;;4956038;28;20055;-75
2022/04/19 05:20:55;;;;;;;30.95;18.05;;;7.20;99.90;;;;;;4973070;28;20488;-75
2022/04/19 05:23:21;;;;;;;57.58;34.33;;;7.10;99.90;;;;;;4973173;28;20038;-78
2022/04/19 05:25:46;;;;;;;42.05;23.42;;;7.20;99.90;;;;;;4972071;28;20047;-75
2022/04/19 05:28:12;;;;;;;53.17;28.23;;;7.10;99.90;;;;;;4972945;28;20043;-75
2022/04/19 05:30:38;;;;;;;28.25;14.43;;;7.20;99.90;;;;;;4967100;28;20039;-76
2022/04/19 05:33:05;;;;;;;17.60;10.73;;;7.30;99.90;;;;;;4974871;28;20054;-75
2022/04/19 05:35:32;;;;;;;20.08;9.18;;;7.50;99.90;;;;;;4960536;28;20042;-75
2022/04/19 05:37:58;;;;;;;19.20;10.32;;;7.60;99.90;;;;;;4973025;28;20121;-78
2022/04/19 05:40:24;;;;;;;15.45;7.88;;;7.50;99.90;;;;;;4957095;28;20043;-78
2022/04/19 05:42:49;;;;;;;14.43;8.30;;;7.40;99.90;;;;;;4956519;28;20194;-77
2022/04/19 05:45:15;;;;;;;12.20;7.10;;;7.40;99.90;;;;;;4955415;28;20049;-77
2022/04/19 05:47:40;;;;;;;14.85;8.15;;;7.60;99.90;;;;;;4955345;28;20042;-77
2022/04/19 05:50:06;;;;;;;16.65;7.65;;;7.60;99.90;;;;;;4955363;28;20050;-78
2022/04/19 05:52:32;;;;;;;16.75;8.50;;;7.70;99.90;;;;;;4955311;28;20065;-77
2022/04/19 05:54:57;;;;;;;14.00;7.10;;;7.80;99.90;;;;;;4955676;28;20410;-77
2022/04/19 05:57:23;;;;;;;15.00;7.28;;;7.90;99.90;;;;;;4955332;28;20038;-77
2022/04/19 05:59:48;;;;;;;13.75;7.70;;;8.10;99.90;;;;;;4953845;28;20045;-78
2022/04/19 06:04:59;;;;;;;18.90;7.97;;;8.20;99.90;;;;;;4962239;28;20049;-78
2022/04/19 06:07:29;;;;;;;10.95;6.80;;;8.40;99.90;;;;;;4955551;28;20085;-78
2022/04/19 06:09:55;;;;;;;11.48;6.78;;;8.30;99.90;;;;;;4955792;28;20134;-77
2022/04/19 06:12:21;;;;;;;14.38;8.32;;;8.20;99.90;;;;;;4971523;28;20514;-77
2022/04/19 06:14:46;;;;;;;13.90;7.25;;;8.20;99.90;;;;;;4955539;28;20047;-78
2022/04/19 06:17:21;;;;;;;13.82;7.28;;;8.20;99.90;;;;;;4955326;28;20042;-78
2022/04/19 06:19:47;;;;;;;13.77;7.38;;;8.30;99.90;;;;;;4955350;28;20050;-78
2022/04/19 06:22:13;;;;;;;15.32;7.53;;;8.40;99.90;;;;;;4955317;28;20095;-78
2022/04/19 06:24:39;;;;;;;12.73;8.68;;;8.50;99.90;;;;;;4972899;28;20085;-78
2022/04/19 06:27:04;;;;;;;12.63;6.97;;;8.60;99.90;;;;;;4955249;28;20074;-77
2022/04/19 06:29:30;;;;;;;18.10;7.85;;;8.70;99.90;;;;;;4972484;28;20042;-78
2022/04/19 06:31:56;;;;;;;17.20;8.45;;;8.80;99.90;;;;;;4955411;28;20495;-77
2022/04/19 06:34:21;;;;;;;12.27;7.22;;;8.90;99.90;;;;;;4972921;28;20123;-77
2022/04/19 06:36:47;;;;;;;12.95;6.45;;;9.00;99.90;;;;;;4955528;28;20051;-77
2022/04/19 06:39:12;;;;;;;16.05;7.50;;;9.00;99.90;;;;;;4955400;28;20046;-78
2022/04/19 06:41:38;;;;;;;13.45;7.28;;;9.10;99.90;;;;;;4955476;28;20038;-77
2022/04/19 06:44:05;;;;;;;12.32;6.90;;;9.40;99.90;;;;;;4955319;28;20065;-76
2022/04/19 06:46:31;;;;;;;14.63;6.50;;;9.70;99.90;;;;;;4955373;28;20050;-77
2022/04/19 06:48:57;;;;;;;14.07;6.72;;;10.00;99.90;;;;;;4955313;28;20043;-78
2022/04/19 06:51:23;;;;;;;10.38;5.85;;;10.40;99.90;;;;;;4955050;28;20547;-77
2022/04/19 06:53:49;;;;;;;10.68;6.25;;;11.10;99.90;;;;;;4971254;28;20070;-78
2022/04/19 06:56:15;;;;;;;15.30;6.88;;;11.80;99.90;;;;;;4954961;28;20129;-78
2022/04/19 06:58:42;;;;;;;11.90;6.57;;;12.20;99.90;;;;;;4954999;28;20066;-78
2022/04/19 07:01:08;;;;;;;13.25;6.68;;;12.30;99.90;;;;;;4954627;28;20049;-78
2022/04/19 07:03:33;;;;;;;8.95;5.47;;;12.10;99.90;;;;;;4954958;28;20043;-78
2022/04/19 07:06:00;;;;;;;9.75;5.53;;;11.90;99.90;;;;;;4955289;28;20059;-78
2022/04/19 07:08:25;;;;;;;8.43;5.07;;;11.80;99.90;;;;;;4955213;28;20039;-79
2022/04/19 07:10:51;;;;;;;10.73;5.65;;;11.80;99.90;;;;;;4958576;28;20101;-77
2022/04/19 07:13:17;;;;;;;10.88;6.25;;;12.10;99.90;;;;;;4958933;28;20050;-78
2022/04/19 07:15:43;;;;;;;9.57;5.55;;;12.60;99.90;;;;;;4958979;28;20043;-78
2022/04/19 07:18:08;;;;;;;10.02;6.20;;;13.10;99.90;;;;;;4976352;28;20097;-78
2022/04/19 07:28:46;;;;;;;10.88;5.70;;;15.00;99.90;;;;;;4958504;28;20057;-79
2022/04/19 07:31:13;;;;;;;9.02;5.43;;;15.50;99.90;;;;;;4958614;28;20042;-78
2022/04/19 07:33:39;;;;;;;9.23;6.03;;;15.80;99.90;;;;;;4967576;28;20062;-80
2022/04/19 07:36:06;;;;;;;11.30;5.80;;;16.30;99.90;;;;;;4981620;28;20039;-79
2022/04/19 07:38:31;;;;;;;9.70;5.80;;;16.80;99.90;;;;;;4979730;28;20066;-79
2022/04/19 07:40:57;;;;;;;9.50;5.78;;;17.00;99.90;;;;;;4958782;28;20054;-79
2022/04/19 07:43:23;;;;;;;9.13;4.85;;;17.30;97.20;;;;;;4958506;28;20054;-79
2022/04/19 07:45:49;;;;;;;7.68;5.07;;;17.50;94.30;;;;;;4975124;28;20494;-79
2022/04/19 07:48:15;;;;;;;9.00;5.55;;;17.60;91.50;;;;;;4957411;28;20046;-79
2022/04/19 07:50:42;;;;;;;12.38;5.57;;;17.60;86.50;;;;;;4957368;28;20042;-79
2022/04/19 07:53:09;;;;;;;8.88;5.28;;;17.70;85.90;;;;;;4957314;28;20414;-79
2022/04/19 07:55:35;;;;;;;9.82;6.18;;;17.90;83.10;;;;;;4973811;28;20135;-79
2022/04/19 07:58:01;;;;;;;9.52;6.18;;;18.10;80.60;;;;;;4957225;28;20078;-80
2022/04/19 08:00:30;;;;;;;8.50;5.93;;;18.10;78.60;;;;;;4957188;28;20078;-80
2022/04/19 08:02:56;;;;;;;8.05;6.00;;;18.20;78.10;;;;;;4957312;28;20035;-80
2022/04/19 08:05:23;;;;;;;10.65;5.47;;;18.40;78.90;;;;;;4957464;28;20050;-79
2022/04/19 08:07:49;;;;;;;8.75;6.05;;;18.50;74.20;;;;;;4957384;28;20109;-80
2022/04/19 08:10:18;;;;;;;9.13;6.15;;;18.50;71.50;;;;;;4973135;28;20030;-79
2022/04/19 08:12:45;;;;;;;11.50;5.20;;;18.60;70.50;;;;;;4957094;28;20049;-81
2022/04/19 08:15:11;;;;;;;7.30;4.50;;;18.70;70.60;;;;;;4974396;28;20553;-81
2022/04/19 08:17:37;;;;;;;9.30;5.28;;;18.60;68.50;;;;;;4942956;28;20046;-81
2022/04/19 08:20:06;;;;;;;7.85;4.82;;;18.60;68.40;;;;;;4973659;28;20047;-81
2022/04/19 08:22:32;;;;;;;8.02;4.60;;;18.60;66.80;;;;;;4988988;28;20050;-82
2022/04/19 08:25:10;;;;;;;8.13;4.00;;;18.70;66.50;;;;;;4941938;28;20051;-81
2022/04/19 08:27:42;;;;;;;8.20;4.07;;;18.90;65.10;;;;;;4940356;28;20100;-81
2022/04/19 08:30:08;;;;;;;7.43;3.83;;;18.90;62.60;;;;;;4973840;28;20134;-83
2022/04/19 08:32:35;;;;;;;8.25;4.93;;;18.70;63.40;;;;;;4957593;28;20043;-82
2022/04/19 08:35:04;;;;;;;9.32;3.90;;;18.90;63.20;;;;;;4957905;28;20057;-81
2022/04/19 08:37:36;;;;;;;5.85;3.00;;;19.00;62.40;;;;;;4958664;28;20039;-81
2022/04/19 08:40:06;;;;;;;6.43;3.30;;;18.90;61.40;;;;;;4957755;28;20529;-82
2022/04/19 08:42:40;;;;;;;6.20;3.90;;;18.70;59.90;;;;;;4941723;28;20560;-81
2022/04/19 08:45:20;;;;;;;6.35;3.60;;;18.70;57.80;;;;;;4979269;28;20055;-80
2022/04/19 08:47:47;;;;;;;8.63;3.90;;;18.80;59.30;;;;;;4947898;28;20043;-80
2022/04/19 08:50:18;;;;;;;7.82;3.85;;;18.90;60.20;;;;;;4980746;28;20070;-80
2022/04/19 08:52:45;;;;;;;6.35;3.83;;;19.10;59.70;;;;;;4998970;28;20509;-80
2022/04/19 08:57:59;;;;;;;8.13;4.43;;;19.30;59.30;;;;;;4965090;28;20498;-81
2022/04/19 09:00:25;;;;;;;6.72;4.43;;;19.50;58.90;;;;;;4982403;28;20082;-81
2022/04/19 09:02:53;;;;;;;8.23;4.80;;;19.70;59.50;;;;;;4965670;28;20049;-80
2022/04/19 09:05:21;;;;;;;7.95;4.80;;;19.60;58.50;;;;;;4967413;28;20046;-80
2022/04/19 09:07:53;;;;;;;9.48;4.07;;;19.40;58.00;;;;;;4950084;28;20035;-80
2022/04/19 09:10:33;;;;;;;7.97;4.38;;;19.30;55.90;;;;;;4998036;28;20560;-81
2022/04/19 09:13:09;;;;;;;8.05;5.03;;;19.30;55.70;;;;;;4953254;28;20046;-81
2022/04/19 09:16:02;;;;;;;7.28;4.90;;;19.30;57.80;;;;;;4965909;28;20042;-81
2022/04/19 09:18:30;;;;;;;7.30;5.13;;;19.20;56.30;;;;;;4945586;28;20061;-81
2022/04/19 09:21:15;;;;;;;8.93;4.43;;;19.10;57.40;;;;;;4973635;28;20082;-82
2022/04/19 09:23:57;;;;;;;6.07;3.95;;;19.20;56.40;;;;;;4943118;28;20252;-81
2022/04/19 09:26:42;;;;;;;4.50;3.63;;;18.90;56.90;;;;;;4974249;28;20042;-81
2022/04/19 09:29:29;;;;;;;6.95;4.63;;;18.90;56.00;;;;;;4973394;28;20046;-82
2022/04/19 09:32:17;;;;;;;7.18;4.20;;;18.90;56.30;;;;;;4974184;28;20061;-81
2022/04/19 09:34:47;;;;;;;8.02;4.63;;;19.10;58.00;;;;;;4957736;28;20046;-81
2022/04/19 09:37:13;;;;;;;6.32;4.35;;;19.20;56.30;;;;;;4974242;28;20490;-81
2022/04/19 09:39:40;;;;;;;6.88;4.80;;;19.10;56.50;;;;;;4975314;28;20344;-82
2022/04/19 09:42:14;;;;;;;7.97;4.32;;;19.30;57.50;;;;;;4957071;28;20046;-81
2022/04/19 09:44:56;;;;;;;7.30;3.80;;;19.30;56.60;;;;;;4943819;28;20053;-80
2022/04/19 09:47:26;;;;;;;4.40;3.30;;;19.40;55.30;;;;;;4989647;28;20035;-80
2022/04/19 09:49:53;;;;;;;6.47;3.22;;;19.10;54.90;;;;;;4941732;28;20105;-80
2022/04/19 09:52:33;;;;;;;4.65;3.70;;;18.80;55.20;;;;;;4975393;28;20414;-81
2022/04/19 09:55:04;;;;;;;3.72;2.47;;;18.80;55.40;;;;;;4942693;28;20049;-80
2022/04/19 09:57:47;;;;;;;;;;;18.90;54.10;;;;;;4957304;28;20410;-80
2022/04/19 10:00:14;;;;;;;;;;;19.00;50.10;;;;;;4942931;28;19925;-81
2022/04/19 10:08:24;;;;;;;4.28;2.28;;;19.50;53.00;;;;;;4956875;28;20189;-81
2022/04/19 10:11:19;;;;;;;3.65;2.08;;;19.70;52.10;;;;;;4973984;28;20042;-81
2022/04/19 10:14:14;;;;;;;3.35;1.83;;;19.70;50.90;;;;;;4941396;28;20045;-82
2022/04/19 10:16:59;;;;;;;4.05;1.90;;;19.60;49.30;;;;;;4958069;28;20045;-82
2022/04/19 10:19:29;;;;;;;3.05;1.98;;;19.10;48.80;;;;;;4989478;28;20042;-81
2022/04/19 10:21:58;;;;;;;4.32;1.95;;;18.90;49.20;;;;;;4956165;28;20041;-79
2022/04/19 10:24:47;;;;;;;3.60;1.95;;;18.80;49.40;;;;;;4993106;28;20054;-80
2022/04/19 10:27:36;;;;;;;3.35;2.20;;;18.50;49.80;;;;;;4959485;28;20077;-82
2022/04/19 10:30:02;;;;;;;2.22;1.45;;;18.40;49.70;;;;;;4989528;28;20039;-81
2022/04/19 10:32:33;;;;;;;2.38;1.02;;;18.30;49.90;;;;;;4992607;28;20047;-81
2022/04/19 10:35:06;;;;;;;3.10;1.60;;;18.40;47.40;;;;;;4978197;28;20121;-82
2022/04/19 10:37:32;;;;;;;3.95;1.85;;;18.20;47.40;;;;;;4973441;28;20186;-82
2022/04/19 10:40:10;;;;;;;3.35;2.00;;;18.20;48.60;;;;;;4973323;28;20043;-82
2022/04/19 10:42:43;;;;;;;1.92;1.45;;;18.20;47.90;;;;;;4973099;28;20045;-81
2022/04/19 10:45:12;;;;;;;3.03;1.45;;;18.20;47.70;;;;;;4959675;28;20047;-81
2022/04/19 10:47:57;;;;;;;1.58;1.23;;;18.20;47.70;;;;;;4944719;28;20089;-81
2022/04/19 10:50:36;;;;;;;3.58;1.52;;;18.20;45.50;;;;;;4946030;28;20045;-80
2022/04/19 10:53:04;;;;;;;2.53;1.70;;;18.20;47.70;;;;;;4976032;28;20141;-81
2022/04/19 10:55:40;;;;;;;4.15;1.95;;;18.30;48.00;;;;;;4978103;28;20062;-80
2022/04/19 10:58:06;;;;;;;4.35;1.98;;;18.50;48.40;;;;;;4960412;28;20121;-80
2022/04/19 11:00:34;;;;;;;5.65;2.08;;;18.60;48.10;;;;;;4975358;28;20173;-80
2022/04/19 11:03:10;;;;;;;5.53;1.73;;;18.70;47.20;;;;;;4946258;28;20050;-81
2022/04/19 11:05:50;;;;;;;3.40;1.50;;;18.70;47.10;;;;;;4961168;28;20074;-79
2022/04/19 11:08:24;;;;;;;1.10;1.00;;;18.60;46.90;;;;;;4977713;28;20043;-80
2022/04/19 11:10:52;;;;;;;1.48;1.35;;;18.50;46.10;;;;;;4949845;28;20093;-81
2022/04/19 11:13:22;;;;;;;3.10;1.40;;;18.60;47.00;;;;;;4971766;28;20043;-80
2022/04/19 11:16:14;;;;;;;2.53;1.83;;;18.70;47.50;;;;;;4987908;28;20050;-81
2022/04/19 11:28:42;;;;;;;1.92;1.10;;;18.70;46.30;;;;;;5159116;23;20049;-80
2022/04/19 11:31:09;;;;;;;1.70;1.20;;;18.50;46.00;;;;;;4980755;28;20048;-80
2022/04/19 11:34:14;;;;;;;4.47;1.38;;;18.50;47.30;;;;;;4997842;28;20045;-80
2022/04/19 11:36:43;;;;;;;2.67;1.02;;;18.60;47.50;;;;;;4997796;28;20062;-80
2022/04/19 11:46:43;;;;;;;2.00;1.38;;;18.70;48.10;;;;;;4997113;28;20046;-81
2022/04/19 11:47:55;;;;;;;2.95;1.42;;;19.20;46.30;;;;;;5017311;28;20049;-80
2022/04/19 11:50:30;;;;;;;3.72;1.50;;;19.10;47.90;;;;;;5016625;28;20535;-80
2022/04/19 11:52:56;;;;;;;3.67;1.25;;;19.10;48.20;;;;;;5016809;28;20049;-80
2022/04/19 11:55:27;;;;;;;1.88;1.20;;;19.00;48.10;;;;;;5000239;28;20528;-79
2022/04/19 11:58:09;;;;;;;2.05;1.40;;;18.80;47.70;;;;;;5016680;28;20191;-80
2022/04/19 12:00:36;;;;;;;3.03;1.50;;;18.40;47.10;;;;;;5000263;28;20421;-80
2022/04/19 12:03:22;;;;;;;1.98;1.13;;;18.30;48.60;;;;;;5016976;28;20520;-80
2022/04/19 12:05:48;;;;;;;2.92;1.20;;;18.40;49.50;;;;;;4999942;28;20049;-81
2022/04/19 12:08:37;;;;;;;5.50;1.50;;;18.30;49.30;;;;;;5001186;28;20037;-80
2022/04/19 12:11:04;;;;;;;3.15;1.27;;;18.30;50.10;;;;;;5000402;28;20037;-81
2022/04/19 12:13:34;;;;;;;3.28;1.92;;;18.40;49.60;;;;;;5017382;28;20045;-81
2022/04/19 12:16:09;;;;;;;5.47;1.80;;;18.50;49.70;;;;;;5016973;28;20118;-79
2022/04/19 12:18:36;;;;;;;3.58;1.35;;;18.50;49.50;;;;;;5017654;28;20037;-81
2022/04/19 12:21:03;;;;;;;1.83;1.23;;;18.70;49.60;;;;;;5032734;28;20566;-79
2022/04/19 12:23:29;;;;;;;3.22;1.85;;;18.80;49.30;;;;;;5001552;28;20042;-80
2022/04/19 12:26:12;;;;;;;1.75;1.33;;;18.90;49.20;;;;;;4999991;28;20555;-78
2022/04/19 12:28:44;;;;;;;1.60;1.30;;;18.90;52.80;;;;;;5000942;28;20073;-80
2022/04/19 12:31:47;;;;;;;4.85;1.42;;;18.90;49.10;;;;;;5000770;28;20428;-79
2022/04/19 12:34:52;;;;;;;5.30;1.67;;;19.00;48.70;;;;;;5001106;28;20075;-80
2022/04/19 12:37:33;;;;;;;3.55;1.40;;;19.00;49.30;;;;;;5011039;28;20099;-80
2022/04/19 12:40:00;;;;;;;2.38;1.63;;;19.20;49.60;;;;;;5017136;28;20045;-80
2022/04/19 12:42:27;;;;;;;4.43;1.50;;;19.20;49.70;;;;;;5018259;28;20546;-80
2022/04/19 12:45:07;;;;;;;1.90;1.50;;;19.30;50.10;;;;;;5000375;28;20087;-80
2022/04/19 12:47:33;;;;;;;1.63;1.52;;;19.10;48.60;;;;;;5000885;28;20033;-79
2022/04/19 12:50:12;;;;;;;2.75;1.70;;;18.90;50.30;;;;;;5000691;28;20041;-81
2022/04/19 12:52:40;;;;;;;2.85;1.42;;;18.90;48.10;;;;;;5018620;28;20040;-80
2022/04/19 12:55:08;;;;;;;2.47;1.27;;;18.70;49.10;;;;;;5018056;28;20050;-79
2022/04/19 12:57:38;;;;;;;3.45;1.40;;;18.60;49.00;;;;;;5001936;28;20122;-81
2022/04/19 13:00:11;;;;;;;2.13;1.23;;;18.60;49.60;;;;;;5017577;28;20049;-80
2022/04/19 13:03:03;;;;;;;1.42;1.08;;;18.70;49.30;;;;;;5002450;28;20045;-81
2022/04/19 13:13:45;;;;;;;1.95;1.20;;;18.50;49.20;;;;;;5017482;28;20053;-79
2022/04/19 13:16:10;;;;;;;1.80;1.23;;;18.50;49.30;;;;;;5017263;28;20037;-79
2022/04/19 13:18:36;;;;;;;2.72;1.52;;;18.60;49.40;;;;;;5001172;28;20037;-79
2022/04/19 13:21:02;;;;;;;2.08;1.30;;;18.60;49.70;;;;;;5000053;28;20052;-79
2022/04/19 13:23:28;;;;;;;5.72;1.42;;;18.70;50.30;;;;;;5018103;28;20064;-79
2022/04/19 13:25:54;;;;;;;1.58;1.27;;;18.90;49.40;;;;;;5000945;28;20045;-79
2022/04/19 13:28:19;;;;;;;7.05;1.85;;;18.90;49.40;;;;;;5016222;28;20041;-79
2022/04/19 13:30:45;;;;;;;3.70;1.70;;;18.90;48.50;;;;;;5016273;28;20116;-79
2022/04/19 13:33:26;;;;;;;1.33;1.23;;;19.00;48.90;;;;;;5034078;28;20072;-79
2022/04/19 13:35:52;;;;;;;2.45;1.30;;;19.00;49.10;;;;;;5014181;28;20049;-80
2022/04/19 13:38:23;;;;;;;3.50;1.92;;;19.10;49.40;;;;;;5016458;28;20144;-79
2022/04/19 13:40:49;;;;;;;4.95;1.73;;;19.10;48.80;;;;;;4999419;28;20041;-79
2022/04/19 13:43:15;;;;;;;2.40;1.40;;;19.20;49.00;;;;;;5015914;28;20099;-79
2022/04/19 13:45:40;;;;;;;5.20;2.10;;;19.20;48.60;;;;;;5000234;28;20041;-79
2022/04/19 13:48:06;;;;;;;3.85;2.15;;;19.20;48.20;;;;;;5000769;28;20143;-79
2022/04/19 13:50:32;;;;;;;5.82;1.70;;;19.20;48.20;;;;;;4999855;28;20041;-79
2022/04/19 13:52:57;;;;;;;2.78;1.85;;;19.20;48.40;;;;;;5016182;28;20037;-79